CYLA

Aupaluk Airport

ICAO Code CYLA
IATA Code YPJ
Name Aupaluk Airport
Location Aupaluk, Quebec, CA
Elevation 121 Feet / 36.9 Meters
Latitude 59.29666667
Longitude -69.59972222
METAR CYLA 092200Z 30011G18KT 15SM FEW020 FEW035 M18/M20 A3048 RMK SC1SC1 SC TR SC TR LAST STFD OBS/ NXT 101300Z SLP330
Extra information Display NOTAMS
Display Charts
Runway Length Width Surface Elevation
04 3521 ft 100 ft GRAVEL 74 ft
22 3521 ft 100 ft GRAVEL 121 ft